sensor_id;sensor_type;location;lat;lon;timestamp;P1;durP1;ratioP1;P2;durP2;ratioP2
3865;SDS011;1948;53.250;10.412;2023-05-07T00:00:59;9.20;;;8.40;;
3865;SDS011;1948;53.250;10.412;2023-05-07T00:03:32;9.70;;;8.90;;
3865;SDS011;1948;53.250;10.412;2023-05-07T00:05:59;11.30;;;9.73;;
3865;SDS011;1948;53.250;10.412;2023-05-07T00:08:28;9.57;;;8.87;;
3865;SDS011;1948;53.250;10.412;2023-05-07T00:10:57;10.93;;;9.87;;
3865;SDS011;1948;53.250;10.412;2023-05-07T00:13:24;9.00;;;8.20;;
3865;SDS011;1948;53.250;10.412;2023-05-07T00:15:51;9.67;;;8.93;;
3865;SDS011;1948;53.250;10.412;2023-05-07T00:18:18;9.17;;;8.43;;
3865;SDS011;1948;53.250;10.412;2023-05-07T00:20:48;10.03;;;9.23;;
3865;SDS011;1948;53.250;10.412;2023-05-07T00:23:15;10.30;;;9.40;;
3865;SDS011;1948;53.250;10.412;2023-05-07T00:25:42;8.97;;;8.30;;
3865;SDS011;1948;53.250;10.412;2023-05-07T00:28:09;10.03;;;8.20;;
3865;SDS011;1948;53.250;10.412;2023-05-07T00:30:38;10.00;;;8.07;;
3865;SDS011;1948;53.250;10.412;2023-05-07T00:33:05;11.03;;;9.97;;
3865;SDS011;1948;53.250;10.412;2023-05-07T00:35:35;9.60;;;8.67;;
3865;SDS011;1948;53.250;10.412;2023-05-07T00:38:01;8.70;;;8.00;;
3865;SDS011;1948;53.250;10.412;2023-05-07T00:40:30;8.90;;;8.10;;
3865;SDS011;1948;53.250;10.412;2023-05-07T00:42:57;9.17;;;8.17;;
3865;SDS011;1948;53.250;10.412;2023-05-07T00:45:26;9.47;;;8.67;;
3865;SDS011;1948;53.250;10.412;2023-05-07T00:47:58;11.03;;;8.53;;
3865;SDS011;1948;53.250;10.412;2023-05-07T00:50:29;9.40;;;8.60;;
3865;SDS011;1948;53.250;10.412;2023-05-07T00:52:58;10.00;;;9.10;;
3865;SDS011;1948;53.250;10.412;2023-05-07T00:55:26;8.97;;;8.23;;
3865;SDS011;1948;53.250;10.412;2023-05-07T00:57:57;9.67;;;8.87;;
3865;SDS011;1948;53.250;10.412;2023-05-07T01:00:24;9.57;;;8.87;;
3865;SDS011;1948;53.250;10.412;2023-05-07T01:02:51;8.83;;;8.23;;
3865;SDS011;1948;53.250;10.412;2023-05-07T01:05:19;9.37;;;8.67;;
3865;SDS011;1948;53.250;10.412;2023-05-07T01:07:50;9.73;;;8.93;;
3865;SDS011;1948;53.250;10.412;2023-05-07T01:10:21;10.73;;;9.73;;
3865;SDS011;1948;53.250;10.412;2023-05-07T01:12:51;11.20;;;10.23;;
3865;SDS011;1948;53.250;10.412;2023-05-07T01:15:21;10.30;;;9.30;;
3865;SDS011;1948;53.250;10.412;2023-05-07T01:17:47;10.10;;;9.30;;
3865;SDS011;1948;53.250;10.412;2023-05-07T01:20:15;17.23;;;10.13;;
3865;SDS011;1948;53.250;10.412;2023-05-07T01:22:42;10.13;;;9.27;;
3865;SDS011;1948;53.250;10.412;2023-05-07T01:25:09;12.93;;;10.10;;
3865;SDS011;1948;53.250;10.412;2023-05-07T01:27:39;11.00;;;10.00;;
3865;SDS011;1948;53.250;10.412;2023-05-07T01:30:06;10.10;;;9.23;;
3865;SDS011;1948;53.250;10.412;2023-05-07T01:35:24;10.60;;;9.80;;
3865;SDS011;1948;53.250;10.412;2023-05-07T01:37:55;9.97;;;9.23;;
3865;SDS011;1948;53.250;10.412;2023-05-07T01:40:23;11.00;;;10.00;;
3865;SDS011;1948;53.250;10.412;2023-05-07T01:42:56;10.87;;;9.97;;
3865;SDS011;1948;53.250;10.412;2023-05-07T01:45:26;10.40;;;9.40;;
3865;SDS011;1948;53.250;10.412;2023-05-07T01:47:53;10.73;;;9.60;;
3865;SDS011;1948;53.250;10.412;2023-05-07T01:50:22;10.20;;;9.40;;
3865;SDS011;1948;53.250;10.412;2023-05-07T01:52:52;10.50;;;9.47;;
3865;SDS011;1948;53.250;10.412;2023-05-07T01:55:21;10.40;;;9.50;;
3865;SDS011;1948;53.250;10.412;2023-05-07T01:57:51;11.40;;;10.30;;
3865;SDS011;1948;53.250;10.412;2023-05-07T02:00:18;12.00;;;10.80;;
3865;SDS011;1948;53.250;10.412;2023-05-07T02:02:45;11.20;;;10.30;;
3865;SDS011;1948;53.250;10.412;2023-05-07T02:05:12;11.53;;;10.53;;
3865;SDS011;1948;53.250;10.412;2023-05-07T02:07:41;11.40;;;10.40;;
3865;SDS011;1948;53.250;10.412;2023-05-07T02:10:08;13.63;;;10.80;;
3865;SDS011;1948;53.250;10.412;2023-05-07T02:12:38;12.50;;;11.20;;
3865;SDS011;1948;53.250;10.412;2023-05-07T02:15:05;12.10;;;10.90;;
3865;SDS011;1948;53.250;10.412;2023-05-07T02:17:33;12.27;;;10.97;;
3865;SDS011;1948;53.250;10.412;2023-05-07T02:20:01;14.20;;;11.17;;
3865;SDS011;1948;53.250;10.412;2023-05-07T02:22:33;12.13;;;10.50;;
3865;SDS011;1948;53.250;10.412;2023-05-07T02:25:00;16.30;;;10.40;;
3865;SDS011;1948;53.250;10.412;2023-05-07T02:27:27;11.63;;;10.57;;
3865;SDS011;1948;53.250;10.412;2023-05-07T02:29:54;13.53;;;11.37;;
3865;SDS011;1948;53.250;10.412;2023-05-07T02:32:23;13.70;;;11.80;;
3865;SDS011;1948;53.250;10.412;2023-05-07T02:34:52;14.67;;;11.20;;
3865;SDS011;1948;53.250;10.412;2023-05-07T02:37:19;15.30;;;13.30;;
3865;SDS011;1948;53.250;10.412;2023-05-07T02:39:51;14.70;;;12.37;;
3865;SDS011;1948;53.250;10.412;2023-05-07T02:42:22;13.53;;;12.20;;
3865;SDS011;1948;53.250;10.412;2023-05-07T02:44:49;14.97;;;13.30;;
3865;SDS011;1948;53.250;10.412;2023-05-07T02:47:18;14.80;;;12.27;;
3865;SDS011;1948;53.250;10.412;2023-05-07T02:49:45;13.10;;;11.87;;
3865;SDS011;1948;53.250;10.412;2023-05-07T02:52:14;13.60;;;11.90;;
3865;SDS011;1948;53.250;10.412;2023-05-07T02:54:43;12.67;;;11.47;;
3865;SDS011;1948;53.250;10.412;2023-05-07T02:57:10;12.70;;;11.50;;
3865;SDS011;1948;53.250;10.412;2023-05-07T02:59:41;12.50;;;11.37;;
3865;SDS011;1948;53.250;10.412;2023-05-07T03:02:09;13.43;;;12.17;;
3865;SDS011;1948;53.250;10.412;2023-05-07T03:04:36;13.60;;;11.80;;
3865;SDS011;1948;53.250;10.412;2023-05-07T03:07:04;11.90;;;10.90;;
3865;SDS011;1948;53.250;10.412;2023-05-07T03:09:33;12.67;;;11.17;;
3865;SDS011;1948;53.250;10.412;2023-05-07T03:12:03;12.03;;;10.93;;
3865;SDS011;1948;53.250;10.412;2023-05-07T03:14:30;12.90;;;11.57;;
3865;SDS011;1948;53.250;10.412;2023-05-07T03:16:57;12.63;;;11.37;;
3865;SDS011;1948;53.250;10.412;2023-05-07T03:19:27;13.70;;;12.37;;
3865;SDS011;1948;53.250;10.412;2023-05-07T03:21:57;13.80;;;11.20;;
3865;SDS011;1948;53.250;10.412;2023-05-07T03:24:27;12.30;;;11.00;;
3865;SDS011;1948;53.250;10.412;2023-05-07T03:26:53;13.10;;;11.70;;
3865;SDS011;1948;53.250;10.412;2023-05-07T03:29:20;12.30;;;11.00;;
3865;SDS011;1948;53.250;10.412;2023-05-07T03:31:47;13.10;;;11.80;;
3865;SDS011;1948;53.250;10.412;2023-05-07T03:34:14;13.27;;;11.40;;
3865;SDS011;1948;53.250;10.412;2023-05-07T03:36:45;14.17;;;11.23;;
3865;SDS011;1948;53.250;10.412;2023-05-07T03:39:12;11.73;;;10.57;;
3865;SDS011;1948;53.250;10.412;2023-05-07T03:41:41;12.90;;;11.07;;
3865;SDS011;1948;53.250;10.412;2023-05-07T03:44:11;14.70;;;11.67;;
3865;SDS011;1948;53.250;10.412;2023-05-07T03:46:37;13.43;;;11.93;;
3865;SDS011;1948;53.250;10.412;2023-05-07T03:49:04;15.53;;;11.33;;
3865;SDS011;1948;53.250;10.412;2023-05-07T03:51:31;12.67;;;11.20;;
3865;SDS011;1948;53.250;10.412;2023-05-07T03:54:02;13.00;;;11.67;;
3865;SDS011;1948;53.250;10.412;2023-05-07T03:56:31;12.43;;;11.30;;
3865;SDS011;1948;53.250;10.412;2023-05-07T03:59:00;12.80;;;11.10;;
3865;SDS011;1948;53.250;10.412;2023-05-07T04:01:27;12.30;;;11.00;;
3865;SDS011;1948;53.250;10.412;2023-05-07T04:03:55;13.67;;;11.87;;
3865;SDS011;1948;53.250;10.412;2023-05-07T04:06:23;15.23;;;10.17;;
3865;SDS011;1948;53.250;10.412;2023-05-07T04:08:53;13.77;;;10.87;;
3865;SDS011;1948;53.250;10.412;2023-05-07T04:11:20;13.13;;;11.90;;
3865;SDS011;1948;53.250;10.412;2023-05-07T04:13:47;13.10;;;11.70;;
3865;SDS011;1948;53.250;10.412;2023-05-07T04:16:16;12.90;;;11.40;;
3865;SDS011;1948;53.250;10.412;2023-05-07T04:18:43;12.27;;;11.10;;
3865;SDS011;1948;53.250;10.412;2023-05-07T04:21:17;13.70;;;11.40;;
3865;SDS011;1948;53.250;10.412;2023-05-07T04:23:47;15.23;;;12.00;;
3865;SDS011;1948;53.250;10.412;2023-05-07T04:26:20;19.53;;;11.43;;
3865;SDS011;1948;53.250;10.412;2023-05-07T04:28:47;12.40;;;11.13;;
3865;SDS011;1948;53.250;10.412;2023-05-07T04:31:16;13.63;;;11.93;;
3865;SDS011;1948;53.250;10.412;2023-05-07T04:33:43;13.73;;;10.97;;
3865;SDS011;1948;53.250;10.412;2023-05-07T04:36:10;14.40;;;11.90;;
3865;SDS011;1948;53.250;10.412;2023-05-07T04:38:37;15.07;;;11.77;;
3865;SDS011;1948;53.250;10.412;2023-05-07T04:41:05;14.90;;;12.87;;
3865;SDS011;1948;53.250;10.412;2023-05-07T04:43:33;13.80;;;10.30;;
3865;SDS011;1948;53.250;10.412;2023-05-07T04:46:02;12.23;;;10.97;;
3865;SDS011;1948;53.250;10.412;2023-05-07T04:48:29;12.70;;;11.47;;
3865;SDS011;1948;53.250;10.412;2023-05-07T04:50:58;14.00;;;10.57;;
3865;SDS011;1948;53.250;10.412;2023-05-07T04:53:24;14.13;;;11.50;;
3865;SDS011;1948;53.250;10.412;2023-05-07T04:55:56;15.87;;;12.37;;
3865;SDS011;1948;53.250;10.412;2023-05-07T04:58:24;12.93;;;11.63;;
3865;SDS011;1948;53.250;10.412;2023-05-07T05:00:53;14.33;;;11.83;;
3865;SDS011;1948;53.250;10.412;2023-05-07T05:03:20;14.60;;;12.30;;
3865;SDS011;1948;53.250;10.412;2023-05-07T05:05:51;14.33;;;11.93;;
3865;SDS011;1948;53.250;10.412;2023-05-07T05:08:19;11.13;;;10.13;;
3865;SDS011;1948;53.250;10.412;2023-05-07T05:10:46;12.37;;;11.13;;
3865;SDS011;1948;53.250;10.412;2023-05-07T05:13:14;11.20;;;10.00;;
3865;SDS011;1948;53.250;10.412;2023-05-07T05:15:42;11.23;;;10.13;;
3865;SDS011;1948;53.250;10.412;2023-05-07T05:18:14;11.40;;;10.27;;
3865;SDS011;1948;53.250;10.412;2023-05-07T05:20:41;9.77;;;8.90;;
3865;SDS011;1948;53.250;10.412;2023-05-07T05:23:10;11.40;;;10.30;;
3865;SDS011;1948;53.250;10.412;2023-05-07T05:25:39;10.27;;;9.37;;
3865;SDS011;1948;53.250;10.412;2023-05-07T05:28:09;10.87;;;9.77;;
3865;SDS011;1948;53.250;10.412;2023-05-07T05:30:40;11.00;;;9.90;;
3865;SDS011;1948;53.250;10.412;2023-05-07T05:33:12;15.73;;;10.00;;
3865;SDS011;1948;53.250;10.412;2023-05-07T05:35:41;12.83;;;10.70;;
3865;SDS011;1948;53.250;10.412;2023-05-07T05:38:08;11.77;;;10.67;;
3865;SDS011;1948;53.250;10.412;2023-05-07T05:40:37;10.80;;;9.70;;
3865;SDS011;1948;53.250;10.412;2023-05-07T05:43:04;13.97;;;11.13;;
3865;SDS011;1948;53.250;10.412;2023-05-07T05:45:34;11.80;;;10.20;;
3865;SDS011;1948;53.250;10.412;2023-05-07T05:48:01;11.27;;;10.17;;
3865;SDS011;1948;53.250;10.412;2023-05-07T05:50:28;11.17;;;9.93;;
3865;SDS011;1948;53.250;10.412;2023-05-07T05:52:55;12.00;;;9.90;;
3865;SDS011;1948;53.250;10.412;2023-05-07T05:55:25;10.90;;;10.00;;
3865;SDS011;1948;53.250;10.412;2023-05-07T05:57:52;10.50;;;9.50;;
3865;SDS011;1948;53.250;10.412;2023-05-07T06:00:19;12.07;;;10.43;;
3865;SDS011;1948;53.250;10.412;2023-05-07T06:02:48;11.40;;;9.80;;
3865;SDS011;1948;53.250;10.412;2023-05-07T06:05:15;10.60;;;9.70;;
3865;SDS011;1948;53.250;10.412;2023-05-07T06:07:45;11.93;;;10.10;;
3865;SDS011;1948;53.250;10.412;2023-05-07T06:10:12;10.97;;;9.87;;
3865;SDS011;1948;53.250;10.412;2023-05-07T06:12:39;10.73;;;9.47;;
3865;SDS011;1948;53.250;10.412;2023-05-07T06:15:06;12.13;;;9.87;;
3865;SDS011;1948;53.250;10.412;2023-05-07T06:17:36;11.23;;;10.17;;
3865;SDS011;1948;53.250;10.412;2023-05-07T06:20:06;10.77;;;9.70;;
3865;SDS011;1948;53.250;10.412;2023-05-07T06:22:34;17.70;;;10.60;;
3865;SDS011;1948;53.250;10.412;2023-05-07T06:25:05;10.20;;;9.40;;
3865;SDS011;1948;53.250;10.412;2023-05-07T06:27:33;10.30;;;9.33;;
3865;SDS011;1948;53.250;10.412;2023-05-07T06:30:02;9.33;;;8.10;;
3865;SDS011;1948;53.250;10.412;2023-05-07T06:32:32;11.67;;;9.83;;
3865;SDS011;1948;53.250;10.412;2023-05-07T06:34:59;15.03;;;9.33;;
3865;SDS011;1948;53.250;10.412;2023-05-07T06:37:31;9.23;;;8.40;;
3865;SDS011;1948;53.250;10.412;2023-05-07T06:40:00;11.67;;;9.43;;
3865;SDS011;1948;53.250;10.412;2023-05-07T06:42:30;9.03;;;8.27;;
3865;SDS011;1948;53.250;10.412;2023-05-07T06:45:02;9.27;;;8.47;;
3865;SDS011;1948;53.250;10.412;2023-05-07T06:47:30;9.37;;;8.40;;
3865;SDS011;1948;53.250;10.412;2023-05-07T06:50:04;9.80;;;8.53;;
3865;SDS011;1948;53.250;10.412;2023-05-07T06:52:32;8.80;;;8.10;;
3865;SDS011;1948;53.250;10.412;2023-05-07T06:54:59;9.43;;;8.60;;
3865;SDS011;1948;53.250;10.412;2023-05-07T06:57:31;9.60;;;8.57;;
3865;SDS011;1948;53.250;10.412;2023-05-07T07:00:02;9.20;;;8.43;;
3865;SDS011;1948;53.250;10.412;2023-05-07T07:02:33;8.80;;;7.93;;
3865;SDS011;1948;53.250;10.412;2023-05-07T07:05:00;10.53;;;8.67;;
3865;SDS011;1948;53.250;10.412;2023-05-07T07:07:27;8.50;;;7.90;;
3865;SDS011;1948;53.250;10.412;2023-05-07T07:09:56;10.57;;;8.40;;
3865;SDS011;1948;53.250;10.412;2023-05-07T07:12:23;8.43;;;7.57;;
3865;SDS011;1948;53.250;10.412;2023-05-07T07:14:52;9.10;;;8.30;;
3865;SDS011;1948;53.250;10.412;2023-05-07T07:17:20;9.10;;;8.27;;
3865;SDS011;1948;53.250;10.412;2023-05-07T07:19:47;8.47;;;7.90;;
3865;SDS011;1948;53.250;10.412;2023-05-07T07:22:16;8.30;;;7.57;;
3865;SDS011;1948;53.250;10.412;2023-05-07T07:24:43;9.90;;;8.80;;
3865;SDS011;1948;53.250;10.412;2023-05-07T07:27:10;8.77;;;8.00;;
3865;SDS011;1948;53.250;10.412;2023-05-07T07:29:40;7.70;;;7.00;;
3865;SDS011;1948;53.250;10.412;2023-05-07T07:32:07;9.30;;;8.50;;
3865;SDS011;1948;53.250;10.412;2023-05-07T07:34:37;8.10;;;7.43;;
3865;SDS011;1948;53.250;10.412;2023-05-07T07:37:04;8.37;;;7.23;;
3865;SDS011;1948;53.250;10.412;2023-05-07T07:39:33;8.37;;;7.47;;
3865;SDS011;1948;53.250;10.412;2023-05-07T07:42:01;7.80;;;7.10;;
3865;SDS011;1948;53.250;10.412;2023-05-07T07:44:30;7.47;;;7.00;;
3865;SDS011;1948;53.250;10.412;2023-05-07T07:47:02;7.17;;;6.57;;
3865;SDS011;1948;53.250;10.412;2023-05-07T07:49:29;7.67;;;7.07;;
3865;SDS011;1948;53.250;10.412;2023-05-07T07:51:56;7.00;;;6.50;;
3865;SDS011;1948;53.250;10.412;2023-05-07T07:54:26;7.50;;;6.83;;
3865;SDS011;1948;53.250;10.412;2023-05-07T07:56:53;6.40;;;6.00;;
3865;SDS011;1948;53.250;10.412;2023-05-07T07:59:20;7.40;;;6.63;;
3865;SDS011;1948;53.250;10.412;2023-05-07T08:01:46;7.97;;;7.00;;
3865;SDS011;1948;53.250;10.412;2023-05-07T08:04:19;7.10;;;6.63;;
3865;SDS011;1948;53.250;10.412;2023-05-07T08:06:49;8.07;;;7.47;;
3865;SDS011;1948;53.250;10.412;2023-05-07T08:09:16;8.60;;;7.93;;
3865;SDS011;1948;53.250;10.412;2023-05-07T08:11:43;9.40;;;8.70;;
3865;SDS011;1948;53.250;10.412;2023-05-07T08:14:10;9.33;;;8.47;;
3865;SDS011;1948;53.250;10.412;2023-05-07T08:16:37;8.70;;;7.90;;
3865;SDS011;1948;53.250;10.412;2023-05-07T08:19:06;9.60;;;8.60;;
3865;SDS011;1948;53.250;10.412;2023-05-07T08:21:38;12.90;;;9.77;;
3865;SDS011;1948;53.250;10.412;2023-05-07T08:24:06;9.30;;;8.40;;
3865;SDS011;1948;53.250;10.412;2023-05-07T08:26:35;10.53;;;9.07;;
3865;SDS011;1948;53.250;10.412;2023-05-07T08:29:02;11.40;;;9.90;;
3865;SDS011;1948;53.250;10.412;2023-05-07T08:31:29;13.23;;;8.63;;
3865;SDS011;1948;53.250;10.412;2023-05-07T08:33:57;10.33;;;9.43;;
3865;SDS011;1948;53.250;10.412;2023-05-07T08:36:24;9.47;;;8.40;;
3865;SDS011;1948;53.250;10.412;2023-05-07T08:38:54;9.27;;;8.57;;
3865;SDS011;1948;53.250;10.412;2023-05-07T08:41:24;8.63;;;7.93;;
3865;SDS011;1948;53.250;10.412;2023-05-07T08:43:51;8.43;;;7.63;;
3865;SDS011;1948;53.250;10.412;2023-05-07T08:46:21;9.30;;;8.50;;
3865;SDS011;1948;53.250;10.412;2023-05-07T08:48:49;9.20;;;8.33;;
3865;SDS011;1948;53.250;10.412;2023-05-07T08:51:18;9.23;;;8.33;;
3865;SDS011;1948;53.250;10.412;2023-05-07T08:53:49;10.43;;;9.53;;
3865;SDS011;1948;53.250;10.412;2023-05-07T08:56:21;9.40;;;8.63;;
3865;SDS011;1948;53.250;10.412;2023-05-07T08:58:48;9.10;;;8.40;;
3865;SDS011;1948;53.250;10.412;2023-05-07T09:01:17;8.43;;;7.80;;
3865;SDS011;1948;53.250;10.412;2023-05-07T09:03:46;9.73;;;9.03;;
3865;SDS011;1948;53.250;10.412;2023-05-07T09:06:14;10.13;;;8.63;;
3865;SDS011;1948;53.250;10.412;2023-05-07T09:08:44;9.07;;;8.37;;
3865;SDS011;1948;53.250;10.412;2023-05-07T09:11:20;14.93;;;9.87;;
3865;SDS011;1948;53.250;10.412;2023-05-07T09:13:52;15.37;;;9.43;;
3865;SDS011;1948;53.250;10.412;2023-05-07T09:16:22;13.20;;;8.23;;
3865;SDS011;1948;53.250;10.412;2023-05-07T09:18:53;10.10;;;9.13;;
3865;SDS011;1948;53.250;10.412;2023-05-07T09:21:21;10.03;;;8.70;;
3865;SDS011;1948;53.250;10.412;2023-05-07T09:23:50;9.20;;;8.30;;
3865;SDS011;1948;53.250;10.412;2023-05-07T09:26:20;11.13;;;10.00;;
3865;SDS011;1948;53.250;10.412;2023-05-07T09:28:51;11.07;;;9.50;;
3865;SDS011;1948;53.250;10.412;2023-05-07T09:31:20;14.23;;;10.13;;
3865;SDS011;1948;53.250;10.412;2023-05-07T09:33:49;10.20;;;9.10;;
3865;SDS011;1948;53.250;10.412;2023-05-07T09:36:22;9.80;;;9.00;;
3865;SDS011;1948;53.250;10.412;2023-05-07T09:38:51;12.40;;;9.20;;
3865;SDS011;1948;53.250;10.412;2023-05-07T09:41:22;9.33;;;8.43;;
3865;SDS011;1948;53.250;10.412;2023-05-07T09:43:53;9.93;;;8.93;;
3865;SDS011;1948;53.250;10.412;2023-05-07T09:46:23;10.23;;;9.20;;
3865;SDS011;1948;53.250;10.412;2023-05-07T09:48:56;13.60;;;9.13;;
3865;SDS011;1948;53.250;10.412;2023-05-07T09:51:25;11.37;;;9.20;;
3865;SDS011;1948;53.250;10.412;2023-05-07T09:54:00;10.40;;;9.50;;
3865;SDS011;1948;53.250;10.412;2023-05-07T09:56:32;9.47;;;8.70;;
3865;SDS011;1948;53.250;10.412;2023-05-07T09:59:00;9.73;;;8.87;;
3865;SDS011;1948;53.250;10.412;2023-05-07T10:01:27;11.10;;;8.73;;
3865;SDS011;1948;53.250;10.412;2023-05-07T10:03:54;11.90;;;9.23;;
3865;SDS011;1948;53.250;10.412;2023-05-07T10:06:24;8.40;;;7.90;;
3865;SDS011;1948;53.250;10.412;2023-05-07T10:08:54;10.10;;;8.60;;
3865;SDS011;1948;53.250;10.412;2023-05-07T10:11:25;9.90;;;9.10;;
3865;SDS011;1948;53.250;10.412;2023-05-07T10:13:52;11.70;;;8.63;;
3865;SDS011;1948;53.250;10.412;2023-05-07T10:16:20;8.30;;;7.80;;
3865;SDS011;1948;53.250;10.412;2023-05-07T10:18:47;9.00;;;8.30;;
3865;SDS011;1948;53.250;10.412;2023-05-07T10:21:19;9.30;;;8.60;;
3865;SDS011;1948;53.250;10.412;2023-05-07T10:23:53;9.50;;;8.60;;
3865;SDS011;1948;53.250;10.412;2023-05-07T10:26:32;10.30;;;8.57;;
3865;SDS011;1948;53.250;10.412;2023-05-07T10:29:06;8.30;;;7.70;;
3865;SDS011;1948;53.250;10.412;2023-05-07T10:34:26;9.27;;;8.57;;
3865;SDS011;1948;53.250;10.412;2023-05-07T10:37:00;8.03;;;7.53;;
3865;SDS011;1948;53.250;10.412;2023-05-07T10:39:28;8.43;;;7.73;;
3865;SDS011;1948;53.250;10.412;2023-05-07T10:42:08;8.57;;;7.67;;
3865;SDS011;1948;53.250;10.412;2023-05-07T10:44:36;8.33;;;7.60;;
3865;SDS011;1948;53.250;10.412;2023-05-07T10:47:04;8.83;;;8.03;;
3865;SDS011;1948;53.250;10.412;2023-05-07T10:49:51;8.10;;;7.50;;
3865;SDS011;1948;53.250;10.412;2023-05-07T10:52:35;8.30;;;7.70;;
3865;SDS011;1948;53.250;10.412;2023-05-07T10:57:47;9.83;;;8.83;;
3865;SDS011;1948;53.250;10.412;2023-05-07T11:03:04;7.90;;;7.40;;
3865;SDS011;1948;53.250;10.412;2023-05-07T11:05:33;8.57;;;7.93;;
3865;SDS011;1948;53.250;10.412;2023-05-07T11:08:04;8.43;;;7.50;;
3865;SDS011;1948;53.250;10.412;2023-05-07T11:13:43;9.30;;;7.70;;
3865;SDS011;1948;53.250;10.412;2023-05-07T11:16:19;6.90;;;6.50;;
3865;SDS011;1948;53.250;10.412;2023-05-07T11:18:47;7.13;;;6.67;;
3865;SDS011;1948;53.250;10.412;2023-05-07T11:24:13;7.20;;;6.60;;
3865;SDS011;1948;53.250;10.412;2023-05-07T11:29:19;8.20;;;6.20;;
3865;SDS011;1948;53.250;10.412;2023-05-07T11:31:52;7.37;;;6.90;;
3865;SDS011;1948;53.250;10.412;2023-05-07T11:34:21;7.13;;;6.63;;
3865;SDS011;1948;53.250;10.412;2023-05-07T11:36:52;6.37;;;5.97;;
3865;SDS011;1948;53.250;10.412;2023-05-07T11:39:25;10.13;;;6.00;;
3865;SDS011;1948;53.250;10.412;2023-05-07T11:42:02;5.53;;;5.33;;
3865;SDS011;1948;53.250;10.412;2023-05-07T11:44:42;6.13;;;5.73;;
3865;SDS011;1948;53.250;10.412;2023-05-07T11:47:17;10.60;;;5.30;;
3865;SDS011;1948;53.250;10.412;2023-05-07T11:49:49;6.37;;;5.97;;
3865;SDS011;1948;53.250;10.412;2023-05-07T11:52:22;5.03;;;4.87;;
3865;SDS011;1948;53.250;10.412;2023-05-07T11:54:51;4.70;;;4.60;;
3865;SDS011;1948;53.250;10.412;2023-05-07T11:57:21;5.87;;;5.50;;
3865;SDS011;1948;53.250;10.412;2023-05-07T11:59:53;6.10;;;5.50;;
3865;SDS011;1948;53.250;10.412;2023-05-07T12:02:24;5.50;;;5.20;;
3865;SDS011;1948;53.250;10.412;2023-05-07T12:04:52;4.80;;;4.60;;
3865;SDS011;1948;53.250;10.412;2023-05-07T12:07:21;5.10;;;4.90;;
3865;SDS011;1948;53.250;10.412;2023-05-07T12:09:50;5.70;;;5.40;;
3865;SDS011;1948;53.250;10.412;2023-05-07T12:12:19;4.57;;;4.33;;
3865;SDS011;1948;53.250;10.412;2023-05-07T12:14:49;4.93;;;4.60;;
3865;SDS011;1948;53.250;10.412;2023-05-07T12:17:16;5.33;;;5.00;;
3865;SDS011;1948;53.250;10.412;2023-05-07T12:19:44;5.40;;;5.10;;
3865;SDS011;1948;53.250;10.412;2023-05-07T12:22:11;4.60;;;4.40;;
3865;SDS011;1948;53.250;10.412;2023-05-07T12:24:48;6.17;;;5.77;;
3865;SDS011;1948;53.250;10.412;2023-05-07T12:27:23;4.97;;;4.77;;
3865;SDS011;1948;53.250;10.412;2023-05-07T12:29:54;5.93;;;5.50;;
3865;SDS011;1948;53.250;10.412;2023-05-07T12:32:34;5.70;;;5.13;;
3865;SDS011;1948;53.250;10.412;2023-05-07T12:35:03;4.03;;;4.00;;
3865;SDS011;1948;53.250;10.412;2023-05-07T12:37:35;5.50;;;5.20;;
3865;SDS011;1948;53.250;10.412;2023-05-07T12:42:42;4.60;;;4.40;;
3865;SDS011;1948;53.250;10.412;2023-05-07T12:45:12;4.70;;;4.50;;
3865;SDS011;1948;53.250;10.412;2023-05-07T12:47:45;4.60;;;4.27;;
3865;SDS011;1948;53.250;10.412;2023-05-07T12:50:13;4.37;;;4.13;;
3865;SDS011;1948;53.250;10.412;2023-05-07T12:52:48;4.80;;;4.40;;
3865;SDS011;1948;53.250;10.412;2023-05-07T12:55:15;4.03;;;3.83;;
3865;SDS011;1948;53.250;10.412;2023-05-07T12:57:47;5.37;;;4.13;;
3865;SDS011;1948;53.250;10.412;2023-05-07T13:00:16;3.87;;;3.77;;
3865;SDS011;1948;53.250;10.412;2023-05-07T13:02:47;3.70;;;3.60;;
3865;SDS011;1948;53.250;10.412;2023-05-07T13:05:14;4.30;;;4.10;;
3865;SDS011;1948;53.250;10.412;2023-05-07T13:07:41;4.17;;;3.90;;
3865;SDS011;1948;53.250;10.412;2023-05-07T13:10:21;3.87;;;3.33;;
3865;SDS011;1948;53.250;10.412;2023-05-07T13:12:51;3.83;;;3.63;;
3865;SDS011;1948;53.250;10.412;2023-05-07T13:15:19;3.20;;;3.00;;
3865;SDS011;1948;53.250;10.412;2023-05-07T13:17:47;3.97;;;3.37;;
3865;SDS011;1948;53.250;10.412;2023-05-07T13:20:14;3.23;;;3.07;;
3865;SDS011;1948;53.250;10.412;2023-05-07T13:22:44;3.90;;;3.20;;
3865;SDS011;1948;53.250;10.412;2023-05-07T13:25:11;3.17;;;3.10;;
3865;SDS011;1948;53.250;10.412;2023-05-07T13:27:41;3.50;;;3.27;;
3865;SDS011;1948;53.250;10.412;2023-05-07T13:30:21;3.40;;;3.23;;
3865;SDS011;1948;53.250;10.412;2023-05-07T13:32:49;3.30;;;3.30;;
3865;SDS011;1948;53.250;10.412;2023-05-07T13:35:19;6.60;;;2.93;;
3865;SDS011;1948;53.250;10.412;2023-05-07T13:37:47;2.67;;;2.67;;
3865;SDS011;1948;53.250;10.412;2023-05-07T13:40:18;3.30;;;3.10;;
3865;SDS011;1948;53.250;10.412;2023-05-07T13:42:48;3.10;;;2.93;;
3865;SDS011;1948;53.250;10.412;2023-05-07T13:45:17;2.50;;;2.40;;
3865;SDS011;1948;53.250;10.412;2023-05-07T13:47:47;3.27;;;3.07;;
3865;SDS011;1948;53.250;10.412;2023-05-07T13:50:17;2.87;;;2.87;;
3865;SDS011;1948;53.250;10.412;2023-05-07T13:52:46;2.60;;;2.50;;
3865;SDS011;1948;53.250;10.412;2023-05-07T13:55:17;2.47;;;2.47;;
3865;SDS011;1948;53.250;10.412;2023-05-07T13:57:47;4.50;;;2.37;;
3865;SDS011;1948;53.250;10.412;2023-05-07T14:00:22;3.23;;;3.10;;
3865;SDS011;1948;53.250;10.412;2023-05-07T14:02:54;2.90;;;2.70;;
3865;SDS011;1948;53.250;10.412;2023-05-07T14:05:22;2.97;;;2.87;;
3865;SDS011;1948;53.250;10.412;2023-05-07T14:07:50;3.13;;;2.80;;
3865;SDS011;1948;53.250;10.412;2023-05-07T14:10:18;3.00;;;2.90;;
3865;SDS011;1948;53.250;10.412;2023-05-07T14:12:45;2.90;;;2.80;;
3865;SDS011;1948;53.250;10.412;2023-05-07T14:15:13;3.00;;;2.80;;
3865;SDS011;1948;53.250;10.412;2023-05-07T14:17:40;3.23;;;3.03;;
3865;SDS011;1948;53.250;10.412;2023-05-07T14:20:13;3.17;;;3.07;;
3865;SDS011;1948;53.250;10.412;2023-05-07T14:22:42;3.37;;;3.30;;
3865;SDS011;1948;53.250;10.412;2023-05-07T14:25:14;4.40;;;3.10;;
3865;SDS011;1948;53.250;10.412;2023-05-07T14:27:44;2.63;;;2.63;;
3865;SDS011;1948;53.250;10.412;2023-05-07T14:30:13;2.63;;;2.53;;
3865;SDS011;1948;53.250;10.412;2023-05-07T14:32:40;2.47;;;2.47;;
3865;SDS011;1948;53.250;10.412;2023-05-07T14:35:10;2.73;;;2.63;;
3865;SDS011;1948;53.250;10.412;2023-05-07T14:37:37;2.77;;;2.67;;
3865;SDS011;1948;53.250;10.412;2023-05-07T14:40:05;2.37;;;2.27;;
3865;SDS011;1948;53.250;10.412;2023-05-07T14:42:33;4.87;;;2.60;;
3865;SDS011;1948;53.250;10.412;2023-05-07T14:45:00;6.30;;;2.77;;
3865;SDS011;1948;53.250;10.412;2023-05-07T14:47:28;3.27;;;3.00;;
3865;SDS011;1948;53.250;10.412;2023-05-07T14:49:55;2.83;;;2.73;;
3865;SDS011;1948;53.250;10.412;2023-05-07T14:52:23;9.10;;;2.77;;
3865;SDS011;1948;53.250;10.412;2023-05-07T14:54:50;4.37;;;2.50;;
3865;SDS011;1948;53.250;10.412;2023-05-07T14:57:20;2.27;;;2.20;;
3865;SDS011;1948;53.250;10.412;2023-05-07T14:59:48;3.03;;;2.40;;
3865;SDS011;1948;53.250;10.412;2023-05-07T15:02:15;6.20;;;2.80;;
3865;SDS011;1948;53.250;10.412;2023-05-07T15:04:46;6.63;;;2.57;;
3865;SDS011;1948;53.250;10.412;2023-05-07T15:07:16;6.23;;;2.50;;
3865;SDS011;1948;53.250;10.412;2023-05-07T15:09:44;2.47;;;2.37;;
3865;SDS011;1948;53.250;10.412;2023-05-07T15:12:11;2.90;;;2.70;;
3865;SDS011;1948;53.250;10.412;2023-05-07T15:14:38;2.50;;;2.50;;
3865;SDS011;1948;53.250;10.412;2023-05-07T15:17:05;9.37;;;2.70;;
3865;SDS011;1948;53.250;10.412;2023-05-07T15:19:35;2.60;;;2.60;;
3865;SDS011;1948;53.250;10.412;2023-05-07T15:22:02;3.70;;;2.27;;
3865;SDS011;1948;53.250;10.412;2023-05-07T15:24:30;2.80;;;2.80;;